createdAt,value
2017-04-05T00:00:29.917Z,61
2017-04-05T00:01:30.692Z,61
2017-04-05T00:02:31.464Z,61
2017-04-05T00:03:32.234Z,61
2017-04-05T00:04:33.255Z,61
2017-04-05T00:05:34.052Z,61
2017-04-05T00:06:34.798Z,61
2017-04-05T00:07:35.571Z,61
2017-04-05T00:08:36.344Z,61
2017-04-05T00:09:37.363Z,62
2017-04-05T00:10:38.137Z,62
2017-04-05T00:11:38.907Z,62
2017-04-05T00:12:39.680Z,62
2017-04-05T00:13:40.450Z,62
2017-04-05T00:14:41.474Z,62
2017-04-05T00:15:42.244Z,62
2017-04-05T00:16:43.018Z,62
2017-04-05T00:17:43.792Z,62
2017-04-05T00:18:44.561Z,62
2017-04-05T00:19:45.587Z,62
2017-04-05T00:20:46.358Z,62
2017-04-05T00:21:47.129Z,62
2017-04-05T00:22:47.897Z,63
2017-04-05T00:23:48.667Z,63
2017-04-05T00:24:49.686Z,62
2017-04-05T00:25:50.455Z,62
2017-04-05T00:26:51.222Z,62
2017-04-05T00:27:51.998Z,63
2017-04-05T00:28:52.766Z,62
2017-04-05T00:29:53.787Z,63
2017-04-05T00:30:54.557Z,63
2017-04-05T00:31:55.330Z,63
2017-04-05T00:32:56.102Z,62
2017-04-05T00:33:56.875Z,62
2017-04-05T00:34:57.893Z,63
2017-04-05T00:35:58.663Z,63
2017-04-05T00:36:59.431Z,63
2017-04-05T00:38:00.201Z,63
2017-04-05T00:39:00.973Z,63
2017-04-05T00:40:02.000Z,62
2017-04-05T00:41:02.768Z,63
2017-04-05T00:42:03.538Z,63
2017-04-05T00:43:04.308Z,63
2017-04-05T00:44:05.082Z,63
2017-04-05T00:45:06.100Z,63
2017-04-05T00:46:06.880Z,64
2017-04-05T00:47:07.643Z,64
2017-04-05T00:48:08.413Z,63
2017-04-05T00:49:09.180Z,64
2017-04-05T00:50:10.205Z,64
2017-04-05T00:51:10.977Z,64
2017-04-05T00:52:11.748Z,65
2017-04-05T00:53:12.519Z,65
2017-04-05T00:54:13.287Z,65
2017-04-05T00:55:14.307Z,64
2017-04-05T00:56:15.075Z,65
2017-04-05T00:57:15.850Z,65
2017-04-05T00:58:16.617Z,65
2017-04-05T00:59:17.387Z,65
2017-04-05T01:00:18.407Z,65
2017-04-05T01:01:19.179Z,65
2017-04-05T01:02:19.947Z,65
2017-04-05T01:03:20.719Z,65
2017-04-05T01:04:21.486Z,65
2017-04-05T01:05:22.510Z,65
2017-04-05T01:06:23.280Z,65
2017-04-05T01:07:24.049Z,65
2017-04-05T01:08:24.823Z,65
2017-04-05T01:09:25.591Z,65
2017-04-05T01:10:26.615Z,65
2017-04-05T01:11:27.385Z,65
2017-04-05T01:12:28.156Z,65
2017-04-05T01:13:28.924Z,65
2017-04-05T01:14:29.693Z,65
2017-04-05T01:15:30.717Z,66
2017-04-05T01:16:31.496Z,65
2017-04-05T01:17:32.263Z,65
2017-04-05T01:18:33.036Z,65
2017-04-05T01:19:33.802Z,65
2017-04-05T01:20:34.826Z,65
2017-04-05T01:21:35.596Z,65
2017-04-05T01:22:36.368Z,66
2017-04-05T01:23:37.141Z,65
2017-04-05T01:24:37.913Z,65
2017-04-05T01:25:38.933Z,65
2017-04-05T01:26:39.703Z,65
2017-04-05T01:27:40.473Z,65
2017-04-05T01:28:41.241Z,65
2017-04-05T01:29:42.012Z,65
2017-04-05T01:30:43.217Z,65
2017-04-05T01:31:43.986Z,65
2017-04-05T01:32:44.756Z,66
2017-04-05T01:33:45.525Z,65
2017-04-05T01:35:51.224Z,65
2017-04-05T01:36:52.182Z,66
2017-04-05T01:37:52.951Z,65
2017-04-05T01:38:53.719Z,65
2017-04-05T01:39:54.493Z,66
2017-04-05T01:40:55.510Z,66
2017-04-05T01:41:56.280Z,65
2017-04-05T01:42:57.053Z,66
2017-04-05T01:43:57.826Z,66
2017-04-05T01:44:58.596Z,66
2017-04-05T01:45:59.620Z,66
2017-04-05T01:47:00.393Z,66
2017-04-05T01:48:01.165Z,66
2017-04-05T01:49:01.934Z,66
2017-04-05T01:50:02.728Z,67
2017-04-05T01:51:03.727Z,67
2017-04-05T01:52:04.499Z,67
2017-04-05T01:53:05.267Z,67
2017-04-05T01:54:06.037Z,67
2017-04-05T01:55:06.989Z,67
2017-04-05T01:56:08.061Z,67
2017-04-05T01:57:08.828Z,67
2017-04-05T01:58:09.600Z,67
2017-04-05T01:59:10.367Z,66
2017-04-05T02:00:11.135Z,66
2017-04-05T02:01:12.155Z,67
2017-04-05T02:02:12.924Z,67
2017-04-05T02:03:13.694Z,67
2017-04-05T02:04:14.466Z,68
2017-04-05T02:05:15.235Z,68
2017-04-05T02:06:16.256Z,67
2017-04-05T02:07:17.028Z,67
2017-04-05T02:08:17.801Z,68
2017-04-05T02:09:18.569Z,68
2017-04-05T02:10:19.338Z,68
2017-04-05T02:11:20.358Z,68
2017-04-05T02:12:21.132Z,68
2017-04-05T02:13:21.901Z,68
2017-04-05T02:14:22.670Z,68
2017-04-05T02:15:23.442Z,68
2017-04-05T02:16:24.574Z,68
2017-04-05T02:17:26.244Z,69
2017-04-05T02:18:27.015Z,68
2017-04-05T02:19:27.783Z,68
2017-04-05T02:20:28.555Z,68
2017-04-05T02:21:29.572Z,68
2017-04-05T02:22:30.346Z,69
2017-04-05T02:23:31.117Z,69
2017-04-05T02:24:31.889Z,68
2017-04-05T02:25:32.657Z,69
2017-04-05T02:26:33.676Z,68
2017-04-05T02:27:34.450Z,68
2017-04-05T02:28:35.221Z,68
2017-04-05T02:29:35.986Z,68
2017-04-05T02:30:36.755Z,68
2017-04-05T02:31:37.777Z,68
2017-04-05T02:32:38.544Z,69
2017-04-05T02:33:39.311Z,69
2017-04-05T02:34:40.083Z,69
2017-04-05T02:35:40.852Z,69
2017-04-05T02:36:41.874Z,69
2017-04-05T02:37:42.642Z,69
2017-04-05T02:38:43.413Z,68
2017-04-05T02:39:44.182Z,68
2017-04-05T02:40:44.954Z,68
2017-04-05T02:41:45.978Z,68
2017-04-05T02:42:46.744Z,68
2017-04-05T02:43:47.514Z,68
2017-04-05T02:44:48.283Z,68
2017-04-05T02:45:49.052Z,68
2017-04-05T02:46:50.070Z,69
2017-04-05T02:47:50.839Z,68
2017-04-05T02:48:51.610Z,69
2017-04-05T02:49:52.384Z,69
2017-04-05T02:50:53.155Z,69
2017-04-05T02:51:54.177Z,69
2017-04-05T02:52:54.944Z,69
2017-04-05T02:53:55.713Z,70
2017-04-05T02:54:56.483Z,70
2017-04-05T02:55:57.256Z,70
2017-04-05T02:56:58.277Z,70
2017-04-05T02:57:59.054Z,70
2017-04-05T02:58:59.816Z,70
2017-04-05T03:00:00.589Z,70
2017-04-05T03:01:01.364Z,70
2017-04-05T03:02:02.383Z,70
2017-04-05T03:03:03.154Z,70
2017-04-05T03:04:03.922Z,70
2017-04-05T03:05:04.688Z,70
2017-04-05T03:06:05.457Z,70
2017-04-05T03:07:06.480Z,70
2017-04-05T03:08:07.255Z,70
2017-04-05T03:09:08.019Z,70
2017-04-05T03:10:08.791Z,70
2017-04-05T03:11:09.560Z,70
2017-04-05T03:12:10.581Z,69
2017-04-05T03:13:11.347Z,70
2017-04-05T03:14:12.119Z,70
2017-04-05T03:15:12.890Z,70
2017-04-05T03:16:13.656Z,70
2017-04-05T03:17:14.726Z,70
2017-04-05T03:18:15.499Z,70
2017-04-05T03:19:16.454Z,70
2017-04-05T03:20:17.224Z,69
2017-04-05T03:21:17.992Z,69
2017-04-05T03:22:19.021Z,70
2017-04-05T03:23:19.784Z,70
2017-04-05T03:24:20.556Z,70
2017-04-05T03:25:21.327Z,70
2017-04-05T03:26:22.095Z,70
2017-04-05T03:27:23.117Z,70
2017-04-05T03:28:23.885Z,70
2017-04-05T03:29:24.656Z,70
2017-04-05T03:30:25.428Z,70
2017-04-05T03:31:26.200Z,70
2017-04-05T03:32:27.218Z,70
2017-04-05T03:33:27.987Z,70
2017-04-05T03:34:28.761Z,70
2017-04-05T03:35:29.529Z,70
2017-04-05T03:36:30.301Z,70
2017-04-05T03:37:31.324Z,70
2017-04-05T03:38:32.095Z,70
2017-04-05T03:39:32.868Z,70
2017-04-05T03:40:33.637Z,70
2017-04-05T03:41:34.405Z,70
2017-04-05T03:42:35.421Z,70
2017-04-05T03:43:36.197Z,70
2017-04-05T03:44:36.963Z,70
2017-04-05T03:45:37.736Z,70
2017-04-05T03:46:38.503Z,69
2017-04-05T03:47:39.524Z,70
2017-04-05T03:48:40.293Z,69
2017-04-05T03:49:41.059Z,69
2017-04-05T03:50:41.828Z,69
2017-04-05T03:51:42.599Z,69
2017-04-05T03:52:43.620Z,69
2017-04-05T03:53:44.388Z,69
2017-04-05T03:54:45.161Z,70
2017-04-05T03:55:45.927Z,69
2017-04-05T03:56:46.703Z,70
2017-04-05T03:57:47.721Z,70
2017-04-05T03:58:48.491Z,71
2017-04-05T03:59:49.260Z,71
2017-04-05T04:00:50.027Z,70
2017-04-05T04:01:50.799Z,71
2017-04-05T04:02:51.817Z,71
2017-04-05T04:03:52.590Z,71
2017-04-05T04:04:53.367Z,71
2017-04-05T04:05:54.134Z,71
2017-04-05T04:06:54.904Z,71
2017-04-05T04:07:55.923Z,72
2017-04-05T04:08:56.692Z,72
2017-04-05T04:09:57.462Z,72
2017-04-05T04:10:58.232Z,72
2017-04-05T04:11:59.001Z,72
2017-04-05T04:13:00.024Z,72
2017-04-05T04:14:00.797Z,72
2017-04-05T04:15:01.565Z,72
2017-04-05T04:16:02.337Z,73
2017-04-05T04:17:03.110Z,72
2017-04-05T04:18:04.127Z,73
2017-04-05T04:19:04.900Z,73
2017-04-05T04:20:05.669Z,73
2017-04-05T04:21:06.437Z,73
2017-04-05T04:22:07.206Z,73
2017-04-05T04:23:08.226Z,73
2017-04-05T04:24:08.995Z,73
2017-04-05T04:25:09.762Z,73
2017-04-05T04:26:10.533Z,73
2017-04-05T04:27:11.302Z,73
2017-04-05T04:28:12.318Z,73
2017-04-05T04:29:13.089Z,73
2017-04-05T04:30:13.861Z,73
2017-04-05T04:31:14.630Z,74
2017-04-05T04:32:15.405Z,73
2017-04-05T04:33:16.420Z,73
2017-04-05T04:34:17.193Z,73
2017-04-05T04:35:17.957Z,73
2017-04-05T04:36:18.730Z,73
2017-04-05T04:37:19.499Z,73
2017-04-05T04:38:20.519Z,73
2017-04-05T04:39:21.292Z,74
2017-04-05T04:40:22.066Z,73
2017-04-05T04:41:22.835Z,73
2017-04-05T04:42:23.603Z,73
2017-04-05T04:43:24.626Z,73
2017-04-05T04:44:25.395Z,73
2017-04-05T04:45:26.169Z,73
2017-04-05T04:46:26.941Z,73
2017-04-05T04:47:27.713Z,73
2017-04-05T04:48:28.732Z,74
2017-04-05T04:49:29.504Z,73
2017-04-05T04:50:30.279Z,73
2017-04-05T04:51:31.050Z,73
2017-04-05T04:52:31.837Z,74
2017-04-05T04:53:32.892Z,74
2017-04-05T04:54:33.667Z,73
2017-04-05T04:55:34.440Z,73
2017-04-05T04:56:35.207Z,73
2017-04-05T04:57:35.975Z,73
2017-04-05T04:58:37.001Z,73
2017-04-05T04:59:37.770Z,73
2017-04-05T05:00:38.544Z,73
2017-04-05T05:01:39.316Z,73
2017-04-05T05:02:40.087Z,73
2017-04-05T05:03:41.159Z,72
2017-04-05T05:04:42.118Z,73
2017-04-05T05:05:42.892Z,72
2017-04-05T05:06:43.666Z,72
2017-04-05T05:07:44.432Z,72
2017-04-05T05:08:45.458Z,71
2017-04-05T05:09:46.232Z,71
2017-04-05T05:10:47.012Z,71
2017-04-05T05:11:47.783Z,71
2017-04-05T05:12:48.558Z,71
2017-04-05T05:13:49.582Z,71
2017-04-05T05:14:50.356Z,71
2017-04-05T05:15:51.126Z,71
2017-04-05T05:16:51.898Z,71
2017-04-05T05:17:52.673Z,70
2017-04-05T05:18:53.888Z,71
2017-04-05T05:19:54.659Z,71
2017-04-05T05:20:55.436Z,71
2017-04-05T05:21:56.212Z,71
2017-04-05T05:22:56.981Z,70
2017-04-05T05:23:58.009Z,70
2017-04-05T05:24:58.781Z,70
2017-04-05T05:25:59.556Z,70
2017-04-05T05:27:00.332Z,70
2017-04-05T05:28:01.109Z,70
2017-04-05T05:29:02.134Z,70
2017-04-05T05:30:02.913Z,70
2017-04-05T05:31:03.685Z,70
2017-04-05T05:32:04.462Z,70
2017-04-05T05:33:05.238Z,70
2017-04-05T05:34:06.264Z,70
2017-04-05T05:35:07.042Z,70
2017-04-05T05:36:07.816Z,70
2017-04-05T05:37:08.591Z,69
2017-04-05T05:38:09.559Z,70
2017-04-05T05:39:10.634Z,69
2017-04-05T05:40:11.406Z,70
2017-04-05T05:41:12.184Z,70
2017-04-05T05:42:12.959Z,70
2017-04-05T05:43:13.739Z,70
2017-04-05T05:44:14.765Z,70
2017-04-05T05:45:15.547Z,69
2017-04-05T05:46:16.319Z,69
2017-04-05T05:47:17.094Z,69
2017-04-05T05:48:17.870Z,69
2017-04-05T05:49:18.899Z,69
2017-04-05T05:50:19.672Z,69
2017-04-05T05:51:20.458Z,69
2017-04-05T05:52:21.234Z,70
2017-04-05T05:53:22.011Z,69
2017-04-05T05:54:23.085Z,69
2017-04-05T05:55:23.861Z,69
2017-04-05T05:56:24.636Z,69
2017-04-05T05:57:25.411Z,69
2017-04-05T05:58:26.190Z,69
2017-04-05T05:59:27.212Z,69
2017-04-05T06:00:27.990Z,69
2017-04-05T06:01:28.770Z,69
2017-04-05T06:02:29.543Z,69
2017-04-05T06:03:30.316Z,69
2017-04-05T06:04:31.339Z,69
2017-04-05T06:05:32.112Z,69
2017-04-05T06:06:32.907Z,69
2017-04-05T06:07:33.668Z,69
2017-04-05T06:08:34.440Z,70
2017-04-05T06:09:35.469Z,69
2017-04-05T06:10:36.241Z,68
2017-04-05T06:11:37.020Z,69
2017-04-05T06:12:37.794Z,69
2017-04-05T06:13:38.573Z,68
2017-04-05T06:14:39.602Z,68
2017-04-05T06:15:40.380Z,68
2017-04-05T06:16:41.354Z,68
2017-04-05T06:17:42.128Z,67
2017-04-05T06:18:42.901Z,67
2017-04-05T06:19:43.930Z,68
2017-04-05T06:20:44.710Z,68
2017-04-05T06:21:45.481Z,68
2017-04-05T06:22:46.260Z,68
2017-04-05T06:23:47.039Z,68
2017-04-05T06:24:48.068Z,68
2017-04-05T06:25:48.845Z,67
2017-04-05T06:26:49.622Z,67
2017-04-05T06:27:50.398Z,67
2017-04-05T06:28:51.176Z,66
2017-04-05T06:29:52.200Z,67
2017-04-05T06:30:52.977Z,67
2017-04-05T06:31:53.759Z,67
2017-04-05T06:32:54.533Z,67
2017-04-05T06:33:55.310Z,67
2017-04-05T06:34:56.340Z,68
2017-04-05T06:35:57.115Z,68
2017-04-05T06:36:58.082Z,67
2017-04-05T06:37:58.861Z,68
2017-04-05T06:38:59.639Z,68
2017-04-05T06:40:00.669Z,69
2017-04-05T06:41:01.449Z,69
2017-04-05T06:42:02.228Z,69
2017-04-05T06:43:03.008Z,69
2017-04-05T06:44:03.785Z,69
2017-04-05T06:45:04.816Z,69
2017-04-05T06:46:05.595Z,68
2017-04-05T06:47:06.375Z,69
2017-04-05T06:48:07.149Z,69
2017-04-05T06:49:07.930Z,69
2017-04-05T06:50:08.957Z,69
2017-04-05T06:51:09.734Z,70
2017-04-05T06:52:10.511Z,70
2017-04-05T06:53:11.289Z,71
2017-04-05T06:54:12.259Z,70
2017-04-05T06:55:13.290Z,70
2017-04-05T06:56:14.066Z,70
2017-04-05T06:57:14.845Z,71
2017-04-05T06:58:15.628Z,71
2017-04-05T06:59:16.407Z,71
2017-04-05T07:00:17.440Z,70
2017-04-05T07:01:18.215Z,71
2017-04-05T07:02:18.994Z,70
2017-04-05T07:03:19.774Z,70
2017-04-05T07:04:20.550Z,70
2017-04-05T07:05:21.584Z,70
2017-04-05T07:06:22.359Z,70
2017-04-05T07:07:23.137Z,71
2017-04-05T07:08:23.913Z,71
2017-04-05T07:09:24.690Z,71
2017-04-05T07:10:25.719Z,71
2017-04-05T07:11:26.500Z,71
2017-04-05T07:12:27.278Z,72
2017-04-05T07:13:28.055Z,72
2017-04-05T07:14:28.835Z,72
2017-04-05T07:15:29.861Z,73
2017-04-05T07:16:30.645Z,73
2017-04-05T07:17:31.418Z,73
2017-04-05T07:18:32.201Z,73
2017-04-05T07:19:32.977Z,73
2017-04-05T07:20:34.005Z,74
2017-04-05T07:21:34.789Z,74
2017-04-05T07:22:35.561Z,73
2017-04-05T07:23:36.340Z,74
2017-04-05T07:24:37.119Z,74
2017-04-05T07:25:38.151Z,74
2017-04-05T07:26:39.119Z,74
2017-04-05T07:27:39.895Z,74
2017-04-05T07:28:40.678Z,74
2017-04-05T07:29:41.458Z,74
2017-04-05T07:30:42.483Z,74
2017-04-05T07:31:43.261Z,74
2017-04-05T07:32:44.040Z,74
2017-04-05T07:33:44.820Z,74
2017-04-05T07:34:45.596Z,74
2017-04-05T07:35:46.624Z,74
2017-04-05T07:36:47.402Z,75
2017-04-05T07:37:48.179Z,74
2017-04-05T07:38:48.957Z,74
2017-04-05T07:39:49.732Z,74
2017-04-05T07:40:50.766Z,75
2017-04-05T07:41:51.544Z,74
2017-04-05T07:42:52.324Z,74
2017-04-05T07:43:53.104Z,74
2017-04-05T07:44:53.882Z,74
2017-04-05T07:45:54.910Z,74
2017-04-05T07:46:55.690Z,74
2017-04-05T07:47:56.474Z,73
2017-04-05T07:48:57.253Z,74
2017-04-05T07:49:58.032Z,73
2017-04-05T07:50:59.063Z,73
2017-04-05T07:51:59.842Z,74
2017-04-05T07:53:00.622Z,73
2017-04-05T07:54:01.402Z,73
2017-04-05T07:55:02.184Z,72
2017-04-05T07:56:03.215Z,72
2017-04-05T07:57:03.996Z,72
2017-04-05T07:58:04.779Z,71
2017-04-05T07:59:05.562Z,71
2017-04-05T08:00:06.347Z,70
2017-04-05T08:01:07.380Z,70
2017-04-05T08:02:08.169Z,70
2017-04-05T08:03:08.948Z,69
2017-04-05T08:04:09.727Z,68
2017-04-05T08:05:10.508Z,67
2017-04-05T08:06:11.548Z,66
2017-04-05T08:07:12.332Z,66
2017-04-05T08:08:13.114Z,65
2017-04-05T08:09:13.896Z,65
2017-04-05T08:10:14.684Z,64
2017-04-05T08:11:15.716Z,64
2017-04-05T08:12:16.501Z,64
2017-04-05T08:13:17.283Z,64
2017-04-05T08:14:18.066Z,64
2017-04-05T08:15:18.853Z,65
2017-04-05T08:16:19.879Z,66
2017-04-05T08:17:20.665Z,67
2017-04-05T08:18:21.448Z,67
2017-04-05T08:19:22.226Z,68
2017-04-05T08:20:23.011Z,67
2017-04-05T08:21:24.236Z,68
2017-04-05T08:22:25.020Z,69
2017-04-05T08:23:25.804Z,69
2017-04-05T08:24:26.583Z,69
2017-04-05T08:25:27.365Z,69
2017-04-05T08:26:28.401Z,69
2017-04-05T08:27:29.178Z,69
2017-04-05T08:28:29.962Z,70
2017-04-05T08:29:30.743Z,71
2017-04-05T08:30:31.713Z,71
2017-04-05T08:31:32.743Z,71
2017-04-05T08:32:33.531Z,71
2017-04-05T08:33:34.308Z,71
2017-04-05T08:34:35.093Z,71
2017-04-05T08:35:35.872Z,71
2017-04-05T08:36:36.902Z,71
2017-04-05T08:37:37.685Z,71
2017-04-05T08:38:38.465Z,70
2017-04-05T08:39:39.245Z,71
2017-04-05T08:40:40.031Z,71
2017-04-05T08:41:41.063Z,71
2017-04-05T08:42:41.846Z,70
2017-04-05T08:43:42.627Z,71
2017-04-05T08:44:43.411Z,70
2017-04-05T08:45:44.190Z,70
2017-04-05T08:46:45.274Z,69
2017-04-05T08:47:46.059Z,69
2017-04-05T08:48:46.839Z,69
2017-04-05T08:49:47.625Z,69
2017-04-05T08:50:48.405Z,69
2017-04-05T08:51:49.436Z,69
2017-04-05T08:52:50.215Z,69
2017-04-05T08:53:50.995Z,70
2017-04-05T08:54:51.969Z,69
2017-04-05T08:55:52.751Z,69
2017-04-05T08:56:53.786Z,68
2017-04-05T08:57:54.562Z,68
2017-04-05T08:58:55.346Z,68
2017-04-05T08:59:56.129Z,68
2017-04-05T09:00:56.909Z,67
2017-04-05T09:01:57.949Z,67
2017-04-05T09:02:58.728Z,67
2017-04-05T09:03:59.514Z,66
2017-04-05T09:05:00.294Z,66
2017-04-05T09:06:01.080Z,66
2017-04-05T09:07:02.109Z,66
2017-04-05T09:08:02.894Z,67
2017-04-05T09:09:03.674Z,67
2017-04-05T09:10:04.460Z,67
2017-04-05T09:11:05.246Z,66
2017-04-05T09:12:06.282Z,65
2017-04-05T09:13:07.066Z,65
2017-04-05T09:14:07.852Z,64
2017-04-05T09:15:08.636Z,63
2017-04-05T09:16:09.419Z,61
2017-04-05T09:17:10.459Z,61
2017-04-05T09:18:11.242Z,59
2017-04-05T09:19:12.034Z,58
2017-04-05T09:20:12.820Z,56
2017-04-05T09:21:13.603Z,55
2017-04-05T09:22:14.642Z,54
2017-04-05T09:23:15.431Z,54
2017-04-05T09:24:16.219Z,53
2017-04-05T09:25:17.008Z,52
2017-04-05T09:26:17.802Z,51
2017-04-05T09:27:18.895Z,50
2017-04-05T09:28:19.689Z,47
2017-04-05T09:29:20.486Z,45
2017-04-05T09:30:21.283Z,45
2017-04-05T09:31:22.072Z,44
2017-04-05T09:32:23.116Z,43
2017-04-05T09:33:23.916Z,42
2017-04-05T09:34:24.703Z,42
2017-04-05T09:35:25.493Z,43
2017-04-05T09:36:26.291Z,41
2017-04-05T09:37:27.333Z,41
2017-04-05T09:38:28.123Z,41
2017-04-05T09:39:28.916Z,41
2017-04-05T09:40:29.710Z,40
2017-04-05T09:41:30.503Z,41
2017-04-05T09:42:31.547Z,41
2017-04-05T09:43:32.339Z,40
2017-04-05T09:44:33.134Z,40
2017-04-05T09:45:33.924Z,39
2017-04-05T09:46:34.714Z,39
2017-04-05T09:47:35.761Z,38
2017-04-05T09:48:36.549Z,38
2017-04-05T09:49:37.344Z,37
2017-04-05T09:50:38.135Z,37
2017-04-05T09:51:38.928Z,36
2017-04-05T09:52:39.966Z,37
2017-04-05T09:53:40.757Z,39
2017-04-05T09:54:41.552Z,40
2017-04-05T09:55:42.343Z,39
2017-04-05T09:56:43.156Z,39
2017-04-05T09:57:44.227Z,37
2017-04-05T09:58:45.022Z,37
2017-04-05T09:59:45.816Z,36
2017-04-05T10:00:46.610Z,36
2017-04-05T10:01:47.406Z,36
2017-04-05T10:02:48.449Z,35
2017-04-05T10:03:49.244Z,35
2017-04-05T10:04:50.037Z,36
2017-04-05T10:05:50.831Z,34
2017-04-05T10:06:51.623Z,34
2017-04-05T10:07:52.717Z,32
2017-04-05T10:08:53.513Z,33
2017-04-05T10:09:54.309Z,32
2017-04-05T10:10:55.107Z,32
2017-04-05T10:11:55.898Z,32
2017-04-05T10:12:56.943Z,32
2017-04-05T10:13:57.738Z,32
2017-04-05T10:14:58.531Z,33
2017-04-05T10:15:59.328Z,31
2017-04-05T10:17:00.124Z,31
2017-04-05T10:18:01.166Z,30
2017-04-05T10:19:01.959Z,30
2017-04-05T10:20:02.754Z,31
2017-04-05T10:21:03.543Z,33
2017-04-05T10:22:04.335Z,35
2017-04-05T10:23:05.380Z,35
2017-04-05T10:24:06.176Z,35
2017-04-05T10:25:06.968Z,34
2017-04-05T10:26:07.764Z,34
2017-04-05T10:27:08.556Z,34
2017-04-05T10:28:09.601Z,33
2017-04-05T10:29:10.398Z,33
2017-04-05T10:30:11.186Z,34
2017-04-05T10:31:11.979Z,36
2017-04-05T10:32:12.778Z,35
2017-04-05T10:33:13.820Z,34
2017-04-05T10:34:14.611Z,33
2017-04-05T10:35:15.404Z,34
2017-04-05T10:36:16.198Z,36
2017-04-05T10:37:16.995Z,36
2017-04-05T10:38:18.031Z,36
2017-04-05T10:39:18.821Z,36
2017-04-05T10:40:19.612Z,37
2017-04-05T10:41:20.405Z,37
2017-04-05T10:42:21.195Z,38
2017-04-05T10:43:22.237Z,40
2017-04-05T10:44:23.025Z,40
2017-04-05T10:45:23.818Z,40
2017-04-05T10:46:24.611Z,39
2017-04-05T10:47:25.410Z,38
2017-04-05T10:48:26.445Z,37
2017-04-05T10:49:27.241Z,36
2017-04-05T10:50:28.035Z,36
2017-04-05T10:51:28.828Z,36
2017-04-05T10:52:29.618Z,37
2017-04-05T10:53:30.662Z,36
2017-04-05T10:54:31.453Z,35
2017-04-05T10:55:32.246Z,33
2017-04-05T10:56:33.233Z,32
2017-04-05T10:57:34.019Z,32
2017-04-05T10:58:35.067Z,33
2017-04-05T10:59:35.861Z,34
2017-04-05T11:00:36.651Z,33
2017-04-05T11:01:37.444Z,33
2017-04-05T11:02:38.238Z,33
2017-04-05T11:03:39.329Z,34
2017-04-05T11:04:40.123Z,35
2017-04-05T11:05:40.914Z,36
2017-04-05T11:06:41.705Z,37
2017-04-05T11:07:42.492Z,39
2017-04-05T11:08:43.533Z,37
2017-04-05T11:09:44.325Z,37
2017-04-05T11:10:45.119Z,38
2017-04-05T11:11:45.906Z,39
2017-04-05T11:12:46.696Z,39
2017-04-05T11:13:47.738Z,39
2017-04-05T11:14:48.524Z,40
2017-04-05T11:15:49.313Z,41
2017-04-05T11:16:50.099Z,40
2017-04-05T11:17:50.888Z,40
2017-04-05T11:18:52.115Z,38
2017-04-05T11:19:52.911Z,36
2017-04-05T11:20:53.701Z,35
2017-04-05T11:21:54.686Z,34
2017-04-05T11:22:55.475Z,33
2017-04-05T11:23:56.520Z,32
2017-04-05T11:24:57.314Z,32
2017-04-05T11:25:58.107Z,32
2017-04-05T11:26:58.900Z,32
2017-04-05T11:27:59.696Z,32
2017-04-05T11:29:00.737Z,32
2017-04-05T11:30:01.531Z,33
2017-04-05T11:31:02.321Z,34
2017-04-05T11:32:03.111Z,35
2017-04-05T11:33:03.898Z,35
2017-04-05T11:34:04.943Z,36
2017-04-05T11:35:05.733Z,37
2017-04-05T11:36:06.520Z,39
2017-04-05T11:37:07.311Z,39
2017-04-05T11:38:08.099Z,40
2017-04-05T11:39:09.186Z,40
2017-04-05T11:40:09.973Z,40
2017-04-05T11:41:10.765Z,40
2017-04-05T11:42:11.549Z,41
2017-04-05T11:43:12.338Z,40
2017-04-05T11:44:13.376Z,40
2017-04-05T11:45:14.167Z,39
2017-04-05T11:46:14.957Z,38
2017-04-05T11:47:15.746Z,37
2017-04-05T11:48:16.538Z,36
2017-04-05T11:49:17.582Z,35
2017-04-05T11:50:18.373Z,34
2017-04-05T11:51:19.160Z,34
2017-04-05T11:52:19.950Z,34
2017-04-05T11:53:20.739Z,33
2017-04-05T11:54:21.780Z,33
2017-04-05T11:55:22.576Z,32
2017-04-05T11:56:23.362Z,32
2017-04-05T11:57:24.150Z,32
2017-04-05T11:58:24.941Z,31
2017-04-05T11:59:25.985Z,31
2017-04-05T12:00:26.775Z,33
2017-04-05T12:01:27.565Z,34
2017-04-05T12:02:28.355Z,35
2017-04-05T12:03:29.138Z,35
2017-04-05T12:04:30.180Z,36
2017-04-05T12:05:30.967Z,35
2017-04-05T12:06:31.755Z,35
2017-04-05T12:07:32.545Z,34
2017-04-05T12:08:33.332Z,33
2017-04-05T12:09:34.370Z,32
2017-04-05T12:10:35.160Z,31
2017-04-05T12:11:35.951Z,30
2017-04-05T12:12:36.739Z,30
2017-04-05T12:13:37.528Z,31
2017-04-05T12:14:38.570Z,31
2017-04-05T12:15:39.364Z,32
2017-04-05T12:16:40.154Z,32
2017-04-05T12:17:40.948Z,31
2017-04-05T12:18:41.736Z,30
2017-04-05T12:19:42.780Z,30
2017-04-05T12:20:43.579Z,30
2017-04-05T12:21:44.356Z,30
2017-04-05T12:22:45.150Z,30
2017-04-05T12:23:45.941Z,31
2017-04-05T12:24:46.984Z,31
2017-04-05T12:25:47.775Z,31
2017-04-05T12:26:48.563Z,31
2017-04-05T12:27:49.354Z,32
2017-04-05T12:28:50.139Z,33
2017-04-05T12:29:51.177Z,32
2017-04-05T12:30:51.966Z,32
2017-04-05T12:31:52.756Z,33
2017-04-05T12:32:53.542Z,33
2017-04-05T12:33:54.330Z,33
2017-04-05T12:34:55.368Z,34
2017-04-05T12:35:56.157Z,34
2017-04-05T12:36:56.945Z,34
2017-04-05T12:37:57.729Z,32
2017-04-05T12:38:58.525Z,32
2017-04-05T12:39:59.561Z,32
2017-04-05T12:41:00.348Z,33
2017-04-05T12:42:01.141Z,34
2017-04-05T12:45:05.569Z,35
2017-04-05T12:46:06.369Z,36
2017-04-05T12:47:07.152Z,36
2017-04-05T12:48:07.938Z,36
2017-04-05T12:49:08.725Z,35
2017-04-05T12:50:09.764Z,35
2017-04-05T12:51:10.555Z,35
2017-04-05T12:52:11.345Z,35
2017-04-05T12:53:12.134Z,35
2017-04-05T12:54:12.924Z,35
2017-04-05T12:55:13.963Z,35
2017-04-05T12:56:14.751Z,35
2017-04-05T12:57:15.539Z,36
2017-04-05T12:58:16.330Z,35
2017-04-05T12:59:17.115Z,36
2017-04-05T13:00:18.158Z,35
2017-04-05T13:01:18.944Z,35
2017-04-05T13:02:19.731Z,35
2017-04-05T13:03:20.523Z,34
2017-04-05T13:04:21.312Z,35
2017-04-05T13:05:22.350Z,35
2017-04-05T13:06:23.135Z,35
2017-04-05T13:07:23.920Z,35
2017-04-05T13:08:24.705Z,34
2017-04-05T13:09:25.490Z,34
2017-04-05T13:10:26.524Z,35
2017-04-05T13:11:27.313Z,34
2017-04-05T13:12:28.099Z,34
2017-04-05T13:13:28.890Z,34
2017-04-05T13:14:29.677Z,35
2017-04-05T13:15:30.713Z,35
2017-04-05T13:16:31.499Z,35
2017-04-05T13:17:32.281Z,35
2017-04-05T13:18:33.078Z,35
2017-04-05T13:19:33.854Z,35
2017-04-05T13:20:34.892Z,35
2017-04-05T13:21:35.669Z,35
2017-04-05T13:22:36.451Z,35
2017-04-05T13:23:37.243Z,36
2017-04-05T13:24:37.991Z,36
2017-04-05T13:25:39.027Z,36
2017-04-05T13:26:39.812Z,37
2017-04-05T13:27:40.596Z,37
2017-04-05T13:28:41.570Z,37
2017-04-05T13:29:42.355Z,37
2017-04-05T13:30:43.387Z,38
2017-04-05T13:31:44.173Z,38
2017-04-05T13:32:44.954Z,38
2017-04-05T13:33:45.733Z,39
2017-04-05T13:34:46.516Z,40
2017-04-05T13:35:47.546Z,40
2017-04-05T13:36:48.331Z,40
2017-04-05T13:37:49.112Z,40
2017-04-05T13:38:49.892Z,40
2017-04-05T13:39:50.679Z,40
2017-04-05T13:40:51.712Z,40
2017-04-05T13:41:52.489Z,39
2017-04-05T13:42:53.273Z,40
2017-04-05T13:43:54.058Z,40
2017-04-05T13:44:54.842Z,40
2017-04-05T13:45:55.879Z,40
2017-04-05T13:46:56.659Z,39
2017-04-05T13:47:57.443Z,39
2017-04-05T13:48:58.228Z,39
2017-04-05T13:49:59.015Z,39
2017-04-05T13:51:00.043Z,39
2017-04-05T13:52:00.835Z,39
2017-04-05T13:53:01.617Z,39
2017-04-05T13:54:02.402Z,39
2017-04-05T13:55:03.180Z,39
2017-04-05T13:56:04.216Z,39
2017-04-05T13:57:04.997Z,38
2017-04-05T13:58:05.780Z,37
2017-04-05T13:59:06.568Z,36
2017-04-05T14:00:07.356Z,36
2017-04-05T14:01:08.387Z,36
2017-04-05T14:02:09.167Z,36
2017-04-05T14:03:09.955Z,37
2017-04-05T14:04:10.745Z,37
2017-04-05T14:05:11.519Z,37
2017-04-05T14:06:12.551Z,39
2017-04-05T14:07:13.335Z,39
2017-04-05T14:08:14.114Z,39
2017-04-05T14:09:14.896Z,38
2017-04-05T14:10:15.678Z,38
2017-04-05T14:11:16.711Z,38
2017-04-05T14:12:17.493Z,38
2017-04-05T14:13:18.270Z,39
2017-04-05T14:14:19.050Z,39
2017-04-05T14:15:19.836Z,40
2017-04-05T14:16:20.865Z,40
2017-04-05T14:17:21.648Z,40
2017-04-05T14:18:22.430Z,41
2017-04-05T14:19:23.213Z,41
2017-04-05T14:20:23.994Z,42
2017-04-05T14:21:25.074Z,43
2017-04-05T14:22:25.858Z,43
2017-04-05T14:23:26.636Z,43
2017-04-05T14:24:27.417Z,44
2017-04-05T14:25:28.200Z,44
2017-04-05T14:26:29.280Z,44
2017-04-05T14:27:30.058Z,44
2017-04-05T14:28:30.843Z,44
2017-04-05T14:29:31.623Z,44
2017-04-05T14:30:32.402Z,44